createdAt,value
2022-08-14T00:00:59.276Z,14.60
2022-08-14T00:04:34.133Z,14.55
2022-08-14T00:07:29.566Z,14.38
2022-08-14T00:10:51.463Z,13.73
2022-08-14T00:13:58.336Z,13.70
2022-08-14T00:17:06.060Z,14.98
2022-08-14T00:20:12.624Z,13.20
2022-08-14T00:23:20.084Z,14.82
2022-08-14T00:26:25.358Z,14.20
2022-08-14T00:29:30.539Z,14.27
2022-08-14T00:32:53.229Z,13.07
2022-08-14T00:36:39.320Z,13.35
2022-08-14T00:39:27.273Z,13.52
2022-08-14T00:42:55.370Z,13.27
2022-08-14T00:45:57.713Z,13.93
2022-08-14T00:49:05.513Z,13.23
2022-08-14T00:52:10.631Z,14.63
2022-08-14T00:55:20.128Z,13.70
2022-08-14T00:58:34.487Z,14.27
2022-08-14T01:01:39.983Z,15.00
2022-08-14T01:04:54.375Z,14.52
2022-08-14T01:08:01.185Z,13.50
2022-08-14T01:11:09.682Z,13.80
2022-08-14T01:14:28.173Z,14.70
2022-08-14T01:17:50.044Z,13.52
2022-08-14T01:21:09.446Z,13.05
2022-08-14T01:24:28.775Z,14.43
2022-08-14T01:27:53.449Z,13.38
2022-08-14T01:31:02.010Z,13.65
2022-08-14T01:35:21.073Z,14.02
2022-08-14T01:37:34.289Z,14.20
2022-08-14T01:40:44.653Z,13.93
2022-08-14T01:47:02.384Z,14.07
2022-08-14T01:50:12.400Z,13.52
2022-08-14T01:56:36.887Z,13.82
2022-08-14T01:59:44.838Z,14.45
2022-08-14T02:02:52.772Z,14.30
2022-08-14T02:05:58.672Z,13.25
2022-08-14T02:09:10.116Z,12.95
2022-08-14T02:12:29.397Z,13.82
2022-08-14T02:15:36.535Z,13.88
2022-08-14T02:18:41.695Z,13.88
2022-08-14T02:21:54.896Z,13.75
2022-08-14T02:25:00.543Z,14.75
2022-08-14T02:28:25.368Z,13.55
2022-08-14T02:31:43.423Z,14.63
2022-08-14T02:34:49.083Z,13.82
2022-08-14T02:37:54.577Z,14.07
2022-08-14T02:41:00.070Z,13.95
2022-08-14T02:44:09.521Z,14.55
2022-08-14T02:47:20.596Z,13.45
2022-08-14T02:50:27.148Z,13.90
2022-08-14T02:53:33.428Z,13.00
2022-08-14T02:57:16.372Z,13.25
2022-08-14T03:00:10.104Z,12.60
2022-08-14T03:03:16.736Z,13.18
2022-08-14T03:06:35.212Z,13.10
2022-08-14T03:10:25.300Z,13.13
2022-08-14T03:13:19.340Z,13.40
2022-08-14T03:16:38.520Z,13.60
2022-08-14T03:19:43.638Z,12.68
2022-08-14T03:22:50.932Z,12.55
2022-08-14T03:25:56.373Z,12.40
2022-08-14T03:29:02.442Z,12.18
2022-08-14T03:32:10.794Z,12.75
2022-08-14T03:35:16.154Z,12.05
2022-08-14T03:39:11.708Z,12.80
2022-08-14T03:41:46.635Z,14.25
2022-08-14T03:45:27.008Z,13.02
2022-08-14T03:48:30.314Z,13.32
2022-08-14T03:51:36.757Z,13.88
2022-08-14T03:54:42.456Z,13.35
2022-08-14T03:57:48.287Z,12.70
2022-08-14T04:00:53.460Z,13.50
2022-08-14T04:04:02.814Z,12.45
2022-08-14T04:07:11.070Z,13.75
2022-08-14T04:10:17.148Z,12.18
2022-08-14T04:13:23.965Z,12.20
2022-08-14T04:16:31.624Z,11.90
2022-08-14T04:19:39.532Z,12.15
2022-08-14T04:22:46.497Z,11.30
2022-08-14T04:25:54.347Z,12.00
2022-08-14T04:29:08.249Z,12.38
2022-08-14T04:33:01.179Z,12.82
2022-08-14T04:35:56.478Z,12.50
2022-08-14T04:39:14.571Z,12.27
2022-08-14T04:42:32.903Z,11.15
2022-08-14T04:45:41.081Z,11.45
2022-08-14T04:48:51.208Z,10.98
2022-08-14T04:52:04.367Z,11.13
2022-08-14T04:55:21.453Z,11.45
2022-08-14T04:58:32.800Z,11.80
2022-08-14T05:01:39.866Z,10.82
2022-08-14T05:04:58.482Z,11.00
2022-08-14T05:08:31.875Z,10.98
2022-08-14T05:11:38.570Z,10.77
2022-08-14T05:14:53.658Z,11.07
2022-08-14T05:18:16.769Z,10.50
2022-08-14T05:22:00.552Z,10.55
2022-08-14T05:24:51.668Z,10.02
2022-08-14T05:27:57.658Z,10.07
2022-08-14T05:31:06.794Z,10.88
2022-08-14T05:34:12.583Z,10.77
2022-08-14T05:37:17.877Z,9.18
2022-08-14T05:40:27.209Z,10.45
2022-08-14T05:43:41.535Z,10.18
2022-08-14T05:46:47.125Z,9.15
2022-08-14T05:49:52.457Z,8.93
2022-08-14T05:52:57.647Z,9.25
2022-08-14T05:56:05.509Z,8.25
2022-08-14T05:59:11.506Z,8.60
2022-08-14T06:02:16.707Z,8.07
2022-08-14T06:05:23.369Z,7.68
2022-08-14T06:08:35.997Z,7.20
2022-08-14T06:11:49.815Z,8.32
2022-08-14T06:14:55.298Z,7.63
2022-08-14T06:18:01.786Z,7.28
2022-08-14T06:21:13.557Z,6.55
2022-08-14T06:24:19.522Z,7.07
2022-08-14T06:27:27.291Z,6.65
2022-08-14T06:30:46.315Z,7.47
2022-08-14T06:35:09.853Z,6.60
2022-08-14T06:37:19.055Z,6.15
2022-08-14T06:40:28.029Z,6.20
2022-08-14T06:43:36.197Z,5.05
2022-08-14T06:46:41.298Z,5.80
2022-08-14T06:49:58.012Z,5.40
2022-08-14T06:53:03.519Z,4.95
2022-08-14T06:56:09.059Z,4.90
2022-08-14T06:59:19.657Z,5.30
2022-08-14T07:02:37.442Z,4.70
2022-08-14T07:05:55.261Z,4.97
2022-08-14T07:09:01.830Z,5.30
2022-08-14T07:12:09.172Z,5.43
2022-08-14T07:15:39.954Z,4.78
2022-08-14T07:18:50.863Z,5.25
2022-08-14T07:21:56.411Z,5.07
2022-08-14T07:25:01.751Z,5.80
2022-08-14T07:28:12.780Z,5.90
2022-08-14T07:31:27.799Z,5.25
2022-08-14T07:34:40.678Z,5.85
2022-08-14T07:37:46.888Z,5.00
2022-08-14T07:40:53.366Z,4.72
2022-08-14T07:44:00.859Z,5.82
2022-08-14T07:47:26.328Z,5.82
2022-08-14T07:50:34.528Z,5.97
2022-08-14T07:53:40.841Z,5.82
2022-08-14T07:56:48.982Z,5.57
2022-08-14T07:59:56.472Z,5.88
2022-08-14T08:03:06.024Z,5.70
2022-08-14T08:06:17.574Z,5.15
2022-08-14T08:09:24.744Z,5.80
2022-08-14T08:12:38.026Z,4.72
2022-08-14T08:15:45.044Z,5.47
2022-08-14T08:18:58.289Z,5.40
2022-08-14T08:22:09.189Z,5.30
2022-08-14T08:25:17.952Z,4.95
2022-08-14T08:28:26.456Z,10.73
2022-08-14T08:31:35.163Z,6.30
2022-08-14T08:34:50.475Z,5.63
2022-08-14T08:38:01.632Z,5.85
2022-08-14T08:41:44.426Z,5.88
2022-08-14T08:44:56.610Z,6.20
2022-08-14T08:48:02.741Z,7.65
2022-08-14T08:51:30.774Z,6.00
2022-08-14T08:54:39.230Z,5.80
2022-08-14T08:57:44.800Z,5.97
2022-08-14T09:00:54.166Z,6.13
2022-08-14T09:04:04.749Z,6.00
2022-08-14T09:07:22.921Z,5.90
2022-08-14T09:10:28.578Z,5.88
2022-08-14T09:13:36.174Z,6.40
2022-08-14T09:16:45.104Z,6.40
2022-08-14T09:19:52.859Z,6.00
2022-08-14T09:23:01.681Z,5.90
2022-08-14T09:26:20.932Z,6.20
2022-08-14T09:29:28.780Z,6.80
2022-08-14T09:32:58.067Z,6.85
2022-08-14T09:36:10.870Z,6.53
2022-08-14T09:39:23.833Z,5.90
2022-08-14T09:42:50.139Z,7.07
2022-08-14T09:46:02.520Z,6.80
2022-08-14T09:49:16.250Z,6.68
2022-08-14T09:52:32.784Z,6.78
2022-08-14T09:55:42.843Z,6.13
2022-08-14T09:58:49.348Z,6.20
2022-08-14T10:01:57.379Z,6.07
2022-08-14T10:05:08.798Z,6.30
2022-08-14T10:08:26.400Z,7.13
2022-08-14T10:11:36.626Z,7.28
2022-08-14T10:14:42.423Z,6.60
2022-08-14T10:17:49.266Z,5.75
2022-08-14T10:21:00.996Z,6.43
2022-08-14T10:24:09.808Z,6.50
2022-08-14T10:27:27.004Z,7.53
2022-08-14T10:30:38.473Z,6.97
2022-08-14T10:33:47.967Z,7.07
2022-08-14T10:37:14.160Z,6.75
2022-08-14T10:40:43.351Z,7.35
2022-08-14T10:44:08.811Z,6.70
2022-08-14T10:48:07.606Z,7.33
2022-08-14T10:51:02.033Z,6.88
2022-08-14T10:54:17.087Z,6.97
2022-08-14T10:57:35.885Z,7.10
2022-08-14T11:00:57.248Z,7.03
2022-08-14T11:04:02.623Z,7.07
2022-08-14T11:07:21.094Z,7.18
2022-08-14T11:10:28.108Z,7.53
2022-08-14T11:13:34.154Z,6.90
2022-08-14T11:16:48.963Z,7.00
2022-08-14T11:20:01.714Z,7.15
2022-08-14T11:23:10.483Z,7.50
2022-08-14T11:26:19.314Z,7.35
2022-08-14T11:29:26.942Z,8.02
2022-08-14T11:32:35.013Z,6.90
2022-08-14T11:35:47.425Z,7.50
2022-08-14T11:38:54.422Z,6.50
2022-08-14T11:42:00.585Z,7.03
2022-08-14T11:45:29.811Z,7.32
2022-08-14T11:49:03.016Z,7.00
2022-08-14T11:52:10.284Z,9.05
2022-08-14T11:55:16.081Z,7.20
2022-08-14T11:58:27.949Z,7.20
2022-08-14T12:01:33.944Z,6.57
2022-08-14T12:04:55.413Z,7.40
2022-08-14T12:08:06.638Z,6.60
2022-08-14T12:11:13.787Z,6.80
2022-08-14T12:14:30.927Z,6.95
2022-08-14T12:17:49.446Z,6.65
2022-08-14T12:20:59.930Z,6.85
2022-08-14T12:24:08.560Z,7.13
2022-08-14T12:27:16.890Z,7.10
2022-08-14T12:30:37.392Z,6.55
2022-08-14T12:33:46.964Z,7.15
2022-08-14T12:37:08.248Z,6.60
2022-08-14T12:40:15.667Z,7.00
2022-08-14T12:43:26.375Z,7.40
2022-08-14T12:46:36.503Z,7.63
2022-08-14T12:49:41.745Z,7.72
2022-08-14T12:53:06.412Z,7.28
2022-08-14T12:56:32.786Z,8.00
2022-08-14T12:59:42.843Z,7.82
2022-08-14T13:02:55.206Z,8.30
2022-08-14T13:06:01.295Z,7.93
2022-08-14T13:09:11.766Z,10.93
2022-08-14T13:12:32.190Z,7.78
2022-08-14T13:15:42.373Z,7.65
2022-08-14T13:18:58.384Z,8.52
2022-08-14T13:22:10.278Z,7.35
2022-08-14T13:25:29.682Z,6.90
2022-08-14T13:28:41.265Z,6.93
2022-08-14T13:32:01.461Z,7.30
2022-08-14T13:35:12.192Z,7.30
2022-08-14T13:38:23.601Z,6.82
2022-08-14T13:41:36.196Z,6.78
2022-08-14T13:44:42.964Z,7.72
2022-08-14T13:47:48.452Z,7.13
2022-08-14T13:50:58.775Z,7.53
2022-08-14T13:54:10.610Z,6.18
2022-08-14T13:57:20.771Z,6.55
2022-08-14T14:00:52.988Z,7.07
2022-08-14T14:03:59.826Z,6.85
2022-08-14T14:07:08.337Z,7.05
2022-08-14T14:10:15.186Z,7.18
2022-08-14T14:16:30.329Z,7.40
2022-08-14T14:19:36.499Z,7.20
2022-08-14T14:23:01.430Z,9.88
2022-08-14T14:26:13.883Z,9.07
2022-08-14T14:29:24.247Z,7.35
2022-08-14T14:32:34.645Z,8.50
2022-08-14T14:35:40.317Z,9.27
2022-08-14T14:38:48.574Z,8.10
2022-08-14T14:41:56.400Z,8.10
2022-08-14T14:45:05.091Z,7.20
2022-08-14T14:48:13.562Z,9.18
2022-08-14T14:51:22.351Z,8.40
2022-08-14T14:54:31.485Z,8.63
2022-08-14T14:57:44.580Z,7.70
2022-08-14T15:00:57.178Z,7.90
2022-08-14T15:04:07.955Z,9.43
2022-08-14T15:07:17.007Z,9.05
2022-08-14T15:10:27.271Z,8.65
2022-08-14T15:13:43.317Z,7.88
2022-08-14T15:16:59.242Z,7.90
2022-08-14T15:20:10.978Z,7.55
2022-08-14T15:23:22.916Z,9.60
2022-08-14T15:26:31.966Z,6.80
2022-08-14T15:29:43.367Z,7.45
2022-08-14T15:32:48.699Z,7.10
2022-08-14T15:35:59.248Z,8.00
2022-08-14T15:39:07.717Z,8.00
2022-08-14T15:42:15.850Z,7.47
2022-08-14T15:45:23.075Z,7.15
2022-08-14T15:48:29.924Z,7.45
2022-08-14T15:51:42.409Z,7.82
2022-08-14T15:54:49.037Z,8.13
2022-08-14T15:58:03.707Z,8.82
2022-08-14T16:01:43.693Z,7.83
2022-08-14T16:04:50.798Z,9.35
2022-08-14T16:07:59.519Z,8.80
2022-08-14T16:11:08.246Z,13.05
2022-08-14T16:14:15.394Z,9.55
2022-08-14T16:17:27.781Z,7.88
2022-08-14T16:20:41.388Z,9.45
2022-08-14T16:23:53.806Z,9.88
2022-08-14T16:27:00.946Z,8.07
2022-08-14T16:30:06.744Z,8.50
2022-08-14T16:33:56.491Z,8.65
2022-08-14T16:36:50.748Z,10.50
2022-08-14T16:39:59.288Z,8.65
2022-08-14T16:43:12.924Z,8.63
2022-08-14T16:46:22.045Z,8.75
2022-08-14T16:50:03.552Z,9.93
2022-08-14T16:52:55.914Z,11.77
2022-08-14T16:56:22.985Z,10.80
2022-08-14T16:59:30.443Z,9.90
2022-08-14T17:03:01.822Z,11.20
2022-08-14T17:06:25.689Z,12.02
2022-08-14T17:09:34.364Z,11.15
2022-08-14T17:12:42.387Z,11.05
2022-08-14T17:16:06.738Z,11.00
2022-08-14T17:19:17.504Z,10.15
2022-08-14T17:22:24.653Z,9.68
2022-08-14T17:25:33.278Z,9.75
2022-08-14T17:28:51.475Z,9.98
2022-08-14T17:35:58.002Z,11.55
2022-08-14T17:39:06.400Z,12.30
2022-08-14T17:42:13.229Z,9.77
2022-08-14T17:45:27.081Z,11.15
2022-08-14T17:49:14.660Z,11.65
2022-08-14T17:52:01.961Z,10.93
2022-08-14T17:55:12.415Z,10.15
2022-08-14T17:58:21.443Z,10.73
2022-08-14T18:01:31.494Z,10.20
2022-08-14T18:04:37.906Z,9.77
2022-08-14T18:08:31.386Z,10.40
2022-08-14T18:11:15.202Z,10.25
2022-08-14T18:14:32.231Z,10.35
2022-08-14T18:21:39.666Z,9.10
2022-08-14T18:24:28.357Z,9.55
2022-08-14T18:27:38.155Z,9.63
2022-08-14T18:30:58.897Z,9.43
2022-08-14T18:34:12.023Z,9.80
2022-08-14T18:37:24.872Z,10.35
2022-08-14T18:40:38.130Z,10.95
2022-08-14T18:43:58.945Z,11.23
2022-08-14T18:47:20.163Z,11.77
2022-08-14T18:50:27.848Z,11.63
2022-08-14T18:53:51.330Z,12.57
2022-08-14T18:57:05.230Z,10.82
2022-08-14T19:00:25.471Z,11.45
2022-08-14T19:03:57.471Z,12.02
2022-08-14T19:07:17.110Z,11.55
2022-08-14T19:10:37.456Z,11.55
2022-08-14T19:13:49.049Z,11.77
2022-08-14T19:16:57.016Z,13.00
2022-08-14T19:20:07.313Z,12.82
2022-08-14T19:23:18.294Z,11.75
2022-08-14T19:26:37.657Z,11.80
2022-08-14T19:29:53.173Z,12.40
2022-08-14T19:33:03.563Z,11.80
2022-08-14T19:36:28.752Z,11.57
2022-08-14T19:39:54.031Z,11.37
2022-08-14T19:43:00.251Z,10.32
2022-08-14T19:46:38.614Z,12.00
2022-08-14T19:50:07.399Z,12.60
2022-08-14T19:53:11.032Z,13.88
2022-08-14T19:56:28.775Z,14.52
2022-08-14T20:02:48.191Z,14.82
2022-08-14T20:06:05.787Z,14.60
2022-08-14T20:11:05.758Z,14.18
2022-08-14T20:12:58.008Z,15.88
2022-08-14T20:16:11.950Z,16.00
2022-08-14T20:19:29.002Z,15.20
2022-08-14T20:22:38.685Z,15.63
2022-08-14T20:25:57.010Z,13.75
2022-08-14T20:29:06.935Z,13.48
2022-08-14T20:32:14.797Z,10.98
2022-08-14T20:35:35.733Z,11.87
2022-08-14T20:38:41.043Z,11.30
2022-08-14T20:42:15.465Z,11.52
2022-08-14T20:45:24.670Z,11.55
2022-08-14T20:48:52.257Z,12.68
2022-08-14T20:52:04.852Z,12.25
2022-08-14T20:55:23.431Z,13.52
2022-08-14T20:58:38.646Z,12.70
2022-08-14T21:01:55.214Z,13.35
2022-08-14T21:05:01.258Z,13.10
2022-08-14T21:08:22.170Z,14.38
2022-08-14T21:11:28.929Z,12.77
2022-08-14T21:14:35.565Z,15.65
2022-08-14T21:17:44.294Z,14.75
2022-08-14T21:20:49.464Z,15.85
2022-08-14T21:23:59.445Z,14.63
2022-08-14T21:27:13.147Z,14.88
2022-08-14T21:30:51.961Z,14.98
2022-08-14T21:33:56.367Z,15.95
2022-08-14T21:37:10.001Z,15.65
2022-08-14T21:40:39.812Z,15.13
2022-08-14T21:43:40.771Z,14.95
2022-08-14T21:46:47.175Z,15.15
2022-08-14T21:49:55.553Z,14.65
2022-08-14T21:53:03.947Z,14.82
2022-08-14T21:56:11.708Z,13.85
2022-08-14T21:59:18.469Z,15.35
2022-08-14T22:02:32.835Z,14.50
2022-08-14T22:05:42.078Z,15.00
2022-08-14T22:08:47.696Z,14.45
2022-08-14T22:11:58.014Z,13.00
2022-08-14T22:15:04.101Z,14.40
2022-08-14T22:18:20.418Z,13.35
2022-08-14T22:21:29.018Z,13.45
2022-08-14T22:24:38.409Z,13.45
2022-08-14T22:27:58.459Z,13.77
2022-08-14T22:31:10.181Z,13.45
2022-08-14T22:34:16.786Z,14.02
2022-08-14T22:37:27.249Z,13.65
2022-08-14T22:41:12.164Z,14.15
2022-08-14T22:44:01.262Z,12.50
2022-08-14T22:47:06.898Z,12.02
2022-08-14T22:50:32.070Z,11.90
2022-08-14T22:53:41.211Z,13.00
2022-08-14T22:56:48.037Z,11.90
2022-08-14T22:59:54.081Z,12.98
2022-08-14T23:03:01.505Z,11.15
2022-08-14T23:07:03.305Z,11.87
2022-08-14T23:09:38.588Z,12.43
2022-08-14T23:12:47.893Z,12.38
2022-08-14T23:15:59.860Z,12.10
2022-08-14T23:19:06.097Z,11.70
2022-08-14T23:22:11.491Z,12.52
2022-08-14T23:25:44.618Z,11.95
2022-08-14T23:28:57.281Z,11.70
2022-08-14T23:32:03.803Z,12.02
2022-08-14T23:35:24.073Z,11.55
2022-08-14T23:38:30.582Z,12.57
2022-08-14T23:41:45.768Z,12.98
2022-08-14T23:44:52.275Z,13.43
2022-08-14T23:47:57.710Z,12.15
2022-08-14T23:51:03.145Z,13.20
2022-08-14T23:54:47.450Z,12.25
2022-08-14T23:57:36.361Z,12.48
